sensor_id;sensor_type;location;lat;lon;timestamp;P1;durP1;ratioP1;P2;durP2;ratioP2
66972;SDS011;53902;51.466;-2.586;2023-02-13T00:02:04;11.93;;;7.10;;
66972;SDS011;53902;51.466;-2.586;2023-02-13T00:04:29;10.23;;;6.57;;
66972;SDS011;53902;51.466;-2.586;2023-02-13T00:06:57;13.63;;;7.25;;
66972;SDS011;53902;51.466;-2.586;2023-02-13T00:09:22;17.27;;;7.00;;
66972;SDS011;53902;51.466;-2.586;2023-02-13T00:11:48;12.20;;;7.22;;
66972;SDS011;53902;51.466;-2.586;2023-02-13T00:14:13;12.43;;;6.88;;
66972;SDS011;53902;51.466;-2.586;2023-02-13T00:16:39;13.60;;;7.25;;
66972;SDS011;53902;51.466;-2.586;2023-02-13T00:19:04;12.00;;;7.00;;
66972;SDS011;53902;51.466;-2.586;2023-02-13T00:21:30;11.52;;;6.22;;
66972;SDS011;53902;51.466;-2.586;2023-02-13T00:23:55;11.00;;;6.70;;
66972;SDS011;53902;51.466;-2.586;2023-02-13T00:26:20;12.68;;;6.80;;
66972;SDS011;53902;51.466;-2.586;2023-02-13T00:28:46;12.18;;;7.85;;
66972;SDS011;53902;51.466;-2.586;2023-02-13T00:31:12;16.05;;;7.07;;
66972;SDS011;53902;51.466;-2.586;2023-02-13T00:33:39;11.30;;;6.40;;
66972;SDS011;53902;51.466;-2.586;2023-02-13T00:36:15;13.48;;;7.47;;
66972;SDS011;53902;51.466;-2.586;2023-02-13T00:38:42;11.45;;;6.55;;
66972;SDS011;53902;51.466;-2.586;2023-02-13T00:41:09;13.43;;;6.80;;
66972;SDS011;53902;51.466;-2.586;2023-02-13T00:43:34;12.73;;;7.10;;
66972;SDS011;53902;51.466;-2.586;2023-02-13T00:46:00;11.35;;;6.55;;
66972;SDS011;53902;51.466;-2.586;2023-02-13T00:48:26;14.35;;;7.05;;
66972;SDS011;53902;51.466;-2.586;2023-02-13T00:50:53;13.40;;;7.38;;
66972;SDS011;53902;51.466;-2.586;2023-02-13T00:53:22;12.90;;;6.78;;
66972;SDS011;53902;51.466;-2.586;2023-02-13T00:55:48;13.20;;;6.88;;
66972;SDS011;53902;51.466;-2.586;2023-02-13T00:58:14;12.52;;;6.40;;
66972;SDS011;53902;51.466;-2.586;2023-02-13T01:00:40;9.55;;;6.40;;
66972;SDS011;53902;51.466;-2.586;2023-02-13T01:03:06;12.82;;;7.35;;
66972;SDS011;53902;51.466;-2.586;2023-02-13T01:05:32;14.02;;;7.90;;
66972;SDS011;53902;51.466;-2.586;2023-02-13T01:07:57;12.30;;;7.00;;
66972;SDS011;53902;51.466;-2.586;2023-02-13T01:10:23;10.10;;;6.32;;
66972;SDS011;53902;51.466;-2.586;2023-02-13T01:12:48;11.35;;;7.10;;
66972;SDS011;53902;51.466;-2.586;2023-02-13T01:15:14;12.55;;;6.97;;
66972;SDS011;53902;51.466;-2.586;2023-02-13T01:17:39;13.38;;;7.18;;
66972;SDS011;53902;51.466;-2.586;2023-02-13T01:20:05;14.13;;;7.30;;
66972;SDS011;53902;51.466;-2.586;2023-02-13T01:22:32;11.00;;;6.57;;
66972;SDS011;53902;51.466;-2.586;2023-02-13T01:24:57;11.13;;;6.80;;
66972;SDS011;53902;51.466;-2.586;2023-02-13T01:27:23;11.15;;;7.28;;
66972;SDS011;53902;51.466;-2.586;2023-02-13T01:29:49;16.40;;;7.70;;
66972;SDS011;53902;51.466;-2.586;2023-02-13T01:32:14;11.05;;;6.70;;
66972;SDS011;53902;51.466;-2.586;2023-02-13T01:34:40;14.27;;;6.65;;
66972;SDS011;53902;51.466;-2.586;2023-02-13T01:37:05;10.38;;;6.15;;
66972;SDS011;53902;51.466;-2.586;2023-02-13T01:39:31;15.85;;;7.75;;
66972;SDS011;53902;51.466;-2.586;2023-02-13T01:41:56;10.70;;;6.65;;
66972;SDS011;53902;51.466;-2.586;2023-02-13T01:48:01;12.52;;;7.45;;
66972;SDS011;53902;51.466;-2.586;2023-02-13T01:52:50;11.43;;;7.03;;
66972;SDS011;53902;51.466;-2.586;2023-02-13T01:55:20;13.38;;;7.13;;
66972;SDS011;53902;51.466;-2.586;2023-02-13T01:57:47;11.98;;;6.68;;
66972;SDS011;53902;51.466;-2.586;2023-02-13T02:00:25;11.52;;;6.40;;
66972;SDS011;53902;51.466;-2.586;2023-02-13T02:02:53;11.50;;;7.00;;
66972;SDS011;53902;51.466;-2.586;2023-02-13T02:05:22;15.27;;;6.80;;
66972;SDS011;53902;51.466;-2.586;2023-02-13T02:07:50;12.43;;;6.35;;
66972;SDS011;53902;51.466;-2.586;2023-02-13T02:10:17;11.63;;;6.80;;
66972;SDS011;53902;51.466;-2.586;2023-02-13T02:15:11;12.60;;;6.35;;
66972;SDS011;53902;51.466;-2.586;2023-02-13T02:17:36;13.43;;;7.05;;
66972;SDS011;53902;51.466;-2.586;2023-02-13T02:39:51;14.23;;;7.53;;
66972;SDS011;53902;51.466;-2.586;2023-02-13T02:43:08;15.35;;;8.07;;
66972;SDS011;53902;51.466;-2.586;2023-02-13T02:45:54;16.45;;;8.07;;
66972;SDS011;53902;51.466;-2.586;2023-02-13T02:51:24;13.40;;;7.43;;
66972;SDS011;53902;51.466;-2.586;2023-02-13T02:54:01;14.93;;;8.63;;
66972;SDS011;53902;51.466;-2.586;2023-02-13T02:56:50;16.83;;;7.85;;
66972;SDS011;53902;51.466;-2.586;2023-02-13T02:59:17;15.95;;;8.50;;
66972;SDS011;53902;51.466;-2.586;2023-02-13T03:02:03;12.87;;;6.90;;
66972;SDS011;53902;51.466;-2.586;2023-02-13T03:04:50;13.43;;;7.65;;
66972;SDS011;53902;51.466;-2.586;2023-02-13T03:07:36;14.45;;;8.05;;
66972;SDS011;53902;51.466;-2.586;2023-02-13T03:10:06;15.65;;;7.78;;
66972;SDS011;53902;51.466;-2.586;2023-02-13T03:13:12;17.10;;;8.18;;
66972;SDS011;53902;51.466;-2.586;2023-02-13T03:15:46;16.08;;;8.05;;
66972;SDS011;53902;51.466;-2.586;2023-02-13T03:18:34;12.95;;;7.75;;
66972;SDS011;53902;51.466;-2.586;2023-02-13T03:21:25;15.02;;;7.22;;
66972;SDS011;53902;51.466;-2.586;2023-02-13T03:24:16;15.55;;;7.57;;
66972;SDS011;53902;51.466;-2.586;2023-02-13T03:26:51;14.27;;;7.70;;
66972;SDS011;53902;51.466;-2.586;2023-02-13T03:29:44;13.30;;;8.02;;
66972;SDS011;53902;51.466;-2.586;2023-02-13T03:35:42;14.00;;;7.85;;
66972;SDS011;53902;51.466;-2.586;2023-02-13T03:41:21;14.00;;;7.65;;
66972;SDS011;53902;51.466;-2.586;2023-02-13T03:43:55;15.68;;;7.70;;
66972;SDS011;53902;51.466;-2.586;2023-02-13T03:46:35;16.40;;;8.38;;
66972;SDS011;53902;51.466;-2.586;2023-02-13T03:49:03;15.18;;;8.20;;
66972;SDS011;53902;51.466;-2.586;2023-02-13T03:51:57;15.20;;;7.80;;
66972;SDS011;53902;51.466;-2.586;2023-02-13T03:54:34;15.60;;;7.97;;
66972;SDS011;53902;51.466;-2.586;2023-02-13T03:57:24;13.13;;;7.05;;
66972;SDS011;53902;51.466;-2.586;2023-02-13T04:00:10;13.63;;;7.38;;
66972;SDS011;53902;51.466;-2.586;2023-02-13T04:02:43;15.20;;;8.05;;
66972;SDS011;53902;51.466;-2.586;2023-02-13T04:05:16;16.30;;;8.15;;
66972;SDS011;53902;51.466;-2.586;2023-02-13T04:07:44;14.48;;;7.85;;
66972;SDS011;53902;51.466;-2.586;2023-02-13T04:10:11;16.27;;;8.00;;
66972;SDS011;53902;51.466;-2.586;2023-02-13T04:15:45;15.57;;;8.00;;
66972;SDS011;53902;51.466;-2.586;2023-02-13T04:18:16;14.35;;;8.57;;
66972;SDS011;53902;51.466;-2.586;2023-02-13T04:20:45;14.45;;;7.88;;
66972;SDS011;53902;51.466;-2.586;2023-02-13T04:23:11;13.38;;;7.82;;
66972;SDS011;53902;51.466;-2.586;2023-02-13T04:25:37;13.65;;;8.20;;
66972;SDS011;53902;51.466;-2.586;2023-02-13T04:28:05;17.23;;;8.05;;
66972;SDS011;53902;51.466;-2.586;2023-02-13T04:30:30;12.43;;;7.65;;
66972;SDS011;53902;51.466;-2.586;2023-02-13T04:32:56;16.08;;;8.23;;
66972;SDS011;53902;51.466;-2.586;2023-02-13T04:35:21;14.18;;;7.93;;
66972;SDS011;53902;51.466;-2.586;2023-02-13T04:37:47;13.93;;;8.23;;
66972;SDS011;53902;51.466;-2.586;2023-02-13T04:40:12;15.45;;;8.07;;
66972;SDS011;53902;51.466;-2.586;2023-02-13T04:42:38;14.38;;;7.68;;
66972;SDS011;53902;51.466;-2.586;2023-02-13T04:45:03;14.48;;;7.55;;
66972;SDS011;53902;51.466;-2.586;2023-02-13T04:47:29;13.95;;;7.45;;
66972;SDS011;53902;51.466;-2.586;2023-02-13T04:49:54;17.45;;;8.30;;
66972;SDS011;53902;51.466;-2.586;2023-02-13T04:52:20;16.27;;;8.10;;
66972;SDS011;53902;51.466;-2.586;2023-02-13T04:54:45;13.50;;;7.70;;
66972;SDS011;53902;51.466;-2.586;2023-02-13T04:57:11;18.08;;;8.38;;
66972;SDS011;53902;51.466;-2.586;2023-02-13T04:59:36;16.70;;;8.27;;
66972;SDS011;53902;51.466;-2.586;2023-02-13T05:02:02;15.52;;;8.05;;
66972;SDS011;53902;51.466;-2.586;2023-02-13T05:04:27;14.93;;;8.27;;
66972;SDS011;53902;51.466;-2.586;2023-02-13T05:06:53;19.38;;;8.25;;
66972;SDS011;53902;51.466;-2.586;2023-02-13T05:09:18;16.92;;;8.35;;
66972;SDS011;53902;51.466;-2.586;2023-02-13T05:11:44;14.27;;;8.32;;
66972;SDS011;53902;51.466;-2.586;2023-02-13T05:14:09;15.07;;;8.45;;
66972;SDS011;53902;51.466;-2.586;2023-02-13T05:16:35;14.65;;;8.23;;
66972;SDS011;53902;51.466;-2.586;2023-02-13T05:19:01;16.90;;;8.10;;
66972;SDS011;53902;51.466;-2.586;2023-02-13T05:21:27;13.60;;;7.72;;
66972;SDS011;53902;51.466;-2.586;2023-02-13T05:24:11;16.50;;;9.30;;
66972;SDS011;53902;51.466;-2.586;2023-02-13T05:26:36;14.80;;;7.93;;
66972;SDS011;53902;51.466;-2.586;2023-02-13T05:29:02;18.67;;;8.45;;
66972;SDS011;53902;51.466;-2.586;2023-02-13T05:31:43;19.70;;;8.25;;
66972;SDS011;53902;51.466;-2.586;2023-02-13T05:34:16;15.43;;;8.25;;
66972;SDS011;53902;51.466;-2.586;2023-02-13T05:36:42;17.25;;;8.73;;
66972;SDS011;53902;51.466;-2.586;2023-02-13T05:39:07;18.83;;;8.73;;
66972;SDS011;53902;51.466;-2.586;2023-02-13T05:41:33;15.85;;;8.68;;
66972;SDS011;53902;51.466;-2.586;2023-02-13T05:43:59;14.57;;;7.95;;
66972;SDS011;53902;51.466;-2.586;2023-02-13T05:46:24;14.70;;;8.20;;
66972;SDS011;53902;51.466;-2.586;2023-02-13T05:48:50;18.23;;;9.02;;
66972;SDS011;53902;51.466;-2.586;2023-02-13T05:51:16;19.25;;;8.63;;
66972;SDS011;53902;51.466;-2.586;2023-02-13T05:53:42;18.00;;;8.88;;
66972;SDS011;53902;51.466;-2.586;2023-02-13T05:56:07;17.02;;;8.02;;
66972;SDS011;53902;51.466;-2.586;2023-02-13T05:58:33;19.30;;;8.73;;
66972;SDS011;53902;51.466;-2.586;2023-02-13T06:00:59;14.57;;;8.00;;
66972;SDS011;53902;51.466;-2.586;2023-02-13T06:03:25;15.10;;;8.65;;
66972;SDS011;53902;51.466;-2.586;2023-02-13T06:05:51;19.42;;;8.85;;
66972;SDS011;53902;51.466;-2.586;2023-02-13T06:08:17;18.42;;;8.27;;
66972;SDS011;53902;51.466;-2.586;2023-02-13T06:10:43;20.60;;;8.82;;
66972;SDS011;53902;51.466;-2.586;2023-02-13T06:13:08;21.45;;;9.48;;
66972;SDS011;53902;51.466;-2.586;2023-02-13T06:15:34;15.50;;;8.45;;
66972;SDS011;53902;51.466;-2.586;2023-02-13T06:17:59;19.02;;;8.77;;
66972;SDS011;53902;51.466;-2.586;2023-02-13T06:20:25;20.27;;;8.35;;
66972;SDS011;53902;51.466;-2.586;2023-02-13T06:22:51;19.45;;;8.75;;
66972;SDS011;53902;51.466;-2.586;2023-02-13T06:25:17;19.40;;;9.10;;
66972;SDS011;53902;51.466;-2.586;2023-02-13T06:27:43;17.90;;;8.90;;
66972;SDS011;53902;51.466;-2.586;2023-02-13T06:30:08;19.08;;;8.52;;
66972;SDS011;53902;51.466;-2.586;2023-02-13T06:32:34;19.85;;;9.75;;
66972;SDS011;53902;51.466;-2.586;2023-02-13T06:35:00;19.02;;;9.00;;
66972;SDS011;53902;51.466;-2.586;2023-02-13T06:37:25;19.60;;;9.13;;
66972;SDS011;53902;51.466;-2.586;2023-02-13T06:39:50;17.65;;;8.77;;
66972;SDS011;53902;51.466;-2.586;2023-02-13T06:42:16;22.98;;;9.63;;
66972;SDS011;53902;51.466;-2.586;2023-02-13T06:44:42;20.73;;;9.67;;
66972;SDS011;53902;51.466;-2.586;2023-02-13T06:47:08;17.40;;;9.05;;
66972;SDS011;53902;51.466;-2.586;2023-02-13T06:49:34;17.30;;;9.05;;
66972;SDS011;53902;51.466;-2.586;2023-02-13T06:51:59;17.70;;;8.93;;
66972;SDS011;53902;51.466;-2.586;2023-02-13T06:54:24;18.08;;;9.20;;
66972;SDS011;53902;51.466;-2.586;2023-02-13T06:56:50;21.63;;;9.07;;
66972;SDS011;53902;51.466;-2.586;2023-02-13T06:59:15;22.48;;;9.25;;
66972;SDS011;53902;51.466;-2.586;2023-02-13T07:01:41;20.80;;;9.57;;
66972;SDS011;53902;51.466;-2.586;2023-02-13T07:04:06;18.20;;;9.45;;
66972;SDS011;53902;51.466;-2.586;2023-02-13T07:06:32;16.55;;;8.82;;
66972;SDS011;53902;51.466;-2.586;2023-02-13T07:08:57;20.67;;;9.60;;
66972;SDS011;53902;51.466;-2.586;2023-02-13T07:11:23;19.73;;;8.95;;
66972;SDS011;53902;51.466;-2.586;2023-02-13T07:13:49;18.67;;;9.13;;
66972;SDS011;53902;51.466;-2.586;2023-02-13T07:16:14;19.48;;;9.00;;
66972;SDS011;53902;51.466;-2.586;2023-02-13T07:18:40;21.15;;;9.43;;
66972;SDS011;53902;51.466;-2.586;2023-02-13T07:21:06;19.35;;;9.00;;
66972;SDS011;53902;51.466;-2.586;2023-02-13T07:23:32;19.15;;;9.95;;
66972;SDS011;53902;51.466;-2.586;2023-02-13T07:25:57;20.38;;;9.02;;
66972;SDS011;53902;51.466;-2.586;2023-02-13T07:28:24;19.25;;;9.65;;
66972;SDS011;53902;51.466;-2.586;2023-02-13T07:30:49;18.17;;;9.68;;
66972;SDS011;53902;51.466;-2.586;2023-02-13T07:33:15;19.20;;;9.60;;
66972;SDS011;53902;51.466;-2.586;2023-02-13T07:35:45;18.35;;;9.10;;
66972;SDS011;53902;51.466;-2.586;2023-02-13T07:38:14;21.65;;;10.30;;
66972;SDS011;53902;51.466;-2.586;2023-02-13T07:40:41;18.75;;;9.93;;
66972;SDS011;53902;51.466;-2.586;2023-02-13T07:43:06;17.50;;;9.48;;
66972;SDS011;53902;51.466;-2.586;2023-02-13T07:45:32;19.45;;;9.50;;
66972;SDS011;53902;51.466;-2.586;2023-02-13T07:47:57;17.27;;;8.90;;
66972;SDS011;53902;51.466;-2.586;2023-02-13T07:50:24;23.98;;;9.50;;
66972;SDS011;53902;51.466;-2.586;2023-02-13T07:53:00;17.90;;;9.40;;
66972;SDS011;53902;51.466;-2.586;2023-02-13T07:55:27;19.10;;;10.20;;
66972;SDS011;53902;51.466;-2.586;2023-02-13T07:57:53;24.80;;;10.18;;
66972;SDS011;53902;51.466;-2.586;2023-02-13T08:00:19;21.17;;;10.85;;
66972;SDS011;53902;51.466;-2.586;2023-02-13T08:02:45;22.63;;;10.88;;
66972;SDS011;53902;51.466;-2.586;2023-02-13T08:05:11;20.13;;;10.43;;
66972;SDS011;53902;51.466;-2.586;2023-02-13T08:07:37;21.52;;;10.23;;
66972;SDS011;53902;51.466;-2.586;2023-02-13T08:10:03;22.38;;;9.80;;
66972;SDS011;53902;51.466;-2.586;2023-02-13T08:12:50;21.00;;;10.10;;
66972;SDS011;53902;51.466;-2.586;2023-02-13T08:15:16;21.67;;;10.37;;
66972;SDS011;53902;51.466;-2.586;2023-02-13T08:17:42;21.33;;;10.82;;
66972;SDS011;53902;51.466;-2.586;2023-02-13T08:20:07;19.85;;;9.98;;
66972;SDS011;53902;51.466;-2.586;2023-02-13T08:22:34;19.63;;;10.30;;
66972;SDS011;53902;51.466;-2.586;2023-02-13T08:25:01;23.67;;;10.38;;
66972;SDS011;53902;51.466;-2.586;2023-02-13T08:27:27;25.17;;;10.57;;
66972;SDS011;53902;51.466;-2.586;2023-02-13T08:29:54;24.35;;;10.02;;
66972;SDS011;53902;51.466;-2.586;2023-02-13T08:32:21;24.73;;;10.85;;
66972;SDS011;53902;51.466;-2.586;2023-02-13T08:34:46;21.88;;;10.70;;
66972;SDS011;53902;51.466;-2.586;2023-02-13T08:37:12;26.08;;;10.82;;
66972;SDS011;53902;51.466;-2.586;2023-02-13T08:39:37;23.65;;;10.55;;
66972;SDS011;53902;51.466;-2.586;2023-02-13T08:42:03;19.92;;;9.95;;
66972;SDS011;53902;51.466;-2.586;2023-02-13T08:44:28;25.50;;;10.82;;
66972;SDS011;53902;51.466;-2.586;2023-02-13T08:46:54;22.20;;;10.75;;
66972;SDS011;53902;51.466;-2.586;2023-02-13T08:49:20;24.63;;;9.82;;
66972;SDS011;53902;51.466;-2.586;2023-02-13T08:51:45;21.77;;;10.43;;
66972;SDS011;53902;51.466;-2.586;2023-02-13T08:54:11;23.45;;;11.30;;
66972;SDS011;53902;51.466;-2.586;2023-02-13T08:56:40;22.85;;;10.68;;
66972;SDS011;53902;51.466;-2.586;2023-02-13T08:59:06;21.65;;;10.15;;
66972;SDS011;53902;51.466;-2.586;2023-02-13T09:01:32;23.55;;;10.75;;
66972;SDS011;53902;51.466;-2.586;2023-02-13T09:03:57;23.38;;;11.02;;
66972;SDS011;53902;51.466;-2.586;2023-02-13T09:06:23;22.05;;;11.27;;
66972;SDS011;53902;51.466;-2.586;2023-02-13T09:08:50;24.52;;;11.48;;
66972;SDS011;53902;51.466;-2.586;2023-02-13T09:11:16;21.83;;;10.65;;
66972;SDS011;53902;51.466;-2.586;2023-02-13T09:13:43;23.23;;;10.32;;
66972;SDS011;53902;51.466;-2.586;2023-02-13T09:16:09;26.27;;;11.48;;
66972;SDS011;53902;51.466;-2.586;2023-02-13T09:18:35;22.15;;;10.27;;
66972;SDS011;53902;51.466;-2.586;2023-02-13T09:21:05;21.63;;;10.25;;
66972;SDS011;53902;51.466;-2.586;2023-02-13T09:23:32;27.05;;;11.18;;
66972;SDS011;53902;51.466;-2.586;2023-02-13T09:28:42;25.88;;;11.20;;
66972;SDS011;53902;51.466;-2.586;2023-02-13T09:31:09;22.58;;;10.80;;
66972;SDS011;53902;51.466;-2.586;2023-02-13T09:33:45;24.45;;;11.90;;
66972;SDS011;53902;51.466;-2.586;2023-02-13T09:36:13;26.65;;;11.43;;
66972;SDS011;53902;51.466;-2.586;2023-02-13T09:38:41;27.40;;;11.25;;
66972;SDS011;53902;51.466;-2.586;2023-02-13T09:41:12;28.20;;;12.52;;
66972;SDS011;53902;51.466;-2.586;2023-02-13T09:43:42;23.10;;;11.35;;
66972;SDS011;53902;51.466;-2.586;2023-02-13T09:46:18;29.98;;;12.60;;
66972;SDS011;53902;51.466;-2.586;2023-02-13T09:48:47;27.00;;;12.07;;
66972;SDS011;53902;51.466;-2.586;2023-02-13T09:51:15;29.38;;;12.00;;
66972;SDS011;53902;51.466;-2.586;2023-02-13T09:53:45;29.88;;;13.63;;
66972;SDS011;53902;51.466;-2.586;2023-02-13T10:02:27;24.75;;;12.38;;
66972;SDS011;53902;51.466;-2.586;2023-02-13T10:16:09;27.92;;;12.15;;
66972;SDS011;53902;51.466;-2.586;2023-02-13T10:19:22;23.23;;;12.15;;
66972;SDS011;53902;51.466;-2.586;2023-02-13T10:21:59;25.55;;;11.85;;
66972;SDS011;53902;51.466;-2.586;2023-02-13T10:24:35;26.58;;;12.52;;
66972;SDS011;53902;51.466;-2.586;2023-02-13T10:27:18;25.33;;;11.93;;
66972;SDS011;53902;51.466;-2.586;2023-02-13T10:30:05;24.42;;;12.35;;
66972;SDS011;53902;51.466;-2.586;2023-02-13T10:35:17;24.92;;;11.70;;
66972;SDS011;53902;51.466;-2.586;2023-02-13T10:37:45;27.75;;;13.77;;
66972;SDS011;53902;51.466;-2.586;2023-02-13T10:40:15;24.77;;;12.40;;
66972;SDS011;53902;51.466;-2.586;2023-02-13T10:51:11;27.55;;;12.63;;
66972;SDS011;53902;51.466;-2.586;2023-02-13T11:02:19;27.73;;;12.85;;
66972;SDS011;53902;51.466;-2.586;2023-02-13T11:04:47;28.50;;;12.85;;
66972;SDS011;53902;51.466;-2.586;2023-02-13T11:07:16;23.35;;;12.45;;
66972;SDS011;53902;51.466;-2.586;2023-02-13T11:09:48;23.40;;;12.18;;
66972;SDS011;53902;51.466;-2.586;2023-02-13T11:17:49;31.27;;;14.23;;
66972;SDS011;53902;51.466;-2.586;2023-02-13T11:20:25;27.03;;;13.60;;
66972;SDS011;53902;51.466;-2.586;2023-02-13T11:23:10;27.30;;;13.70;;
66972;SDS011;53902;51.466;-2.586;2023-02-13T11:25:54;29.13;;;13.63;;
66972;SDS011;53902;51.466;-2.586;2023-02-13T11:28:22;30.80;;;14.05;;
66972;SDS011;53902;51.466;-2.586;2023-02-13T11:30:47;22.25;;;12.52;;
66972;SDS011;53902;51.466;-2.586;2023-02-13T11:35:42;25.02;;;12.25;;
66972;SDS011;53902;51.466;-2.586;2023-02-13T11:40:39;28.40;;;13.43;;
66972;SDS011;53902;51.466;-2.586;2023-02-13T11:43:06;27.13;;;12.63;;
66972;SDS011;53902;51.466;-2.586;2023-02-13T11:45:32;30.02;;;13.88;;
66972;SDS011;53902;51.466;-2.586;2023-02-13T11:47:58;29.60;;;13.15;;
66972;SDS011;53902;51.466;-2.586;2023-02-13T11:50:25;29.08;;;13.07;;
66972;SDS011;53902;51.466;-2.586;2023-02-13T11:53:06;24.20;;;12.52;;
66972;SDS011;53902;51.466;-2.586;2023-02-13T11:55:34;28.92;;;13.80;;
66972;SDS011;53902;51.466;-2.586;2023-02-13T11:58:23;25.77;;;13.25;;
66972;SDS011;53902;51.466;-2.586;2023-02-13T12:00:49;24.52;;;12.27;;
66972;SDS011;53902;51.466;-2.586;2023-02-13T12:08:30;28.70;;;12.77;;
66972;SDS011;53902;51.466;-2.586;2023-02-13T12:10:58;26.90;;;12.85;;
66972;SDS011;53902;51.466;-2.586;2023-02-13T12:13:26;28.70;;;13.50;;
66972;SDS011;53902;51.466;-2.586;2023-02-13T12:16:00;25.60;;;12.85;;
66972;SDS011;53902;51.466;-2.586;2023-02-13T12:18:31;26.92;;;12.13;;
66972;SDS011;53902;51.466;-2.586;2023-02-13T12:39:39;23.02;;;12.32;;
66972;SDS011;53902;51.466;-2.586;2023-02-13T12:45:01;22.48;;;12.38;;
66972;SDS011;53902;51.466;-2.586;2023-02-13T12:48:25;27.20;;;12.55;;
66972;SDS011;53902;51.466;-2.586;2023-02-13T12:58:59;23.02;;;11.90;;
66972;SDS011;53902;51.466;-2.586;2023-02-13T13:05:04;23.50;;;11.95;;
66972;SDS011;53902;51.466;-2.586;2023-02-13T13:13:27;24.58;;;12.07;;
66972;SDS011;53902;51.466;-2.586;2023-02-13T13:26:42;20.52;;;11.80;;
66972;SDS011;53902;51.466;-2.586;2023-02-13T13:29:18;21.42;;;11.93;;
66972;SDS011;53902;51.466;-2.586;2023-02-13T13:31:58;21.92;;;11.40;;
66972;SDS011;53902;51.466;-2.586;2023-02-13T13:34:26;22.92;;;11.30;;
66972;SDS011;53902;51.466;-2.586;2023-02-13T13:36:53;18.67;;;11.43;;
66972;SDS011;53902;51.466;-2.586;2023-02-13T13:47:10;23.33;;;11.73;;
66972;SDS011;53902;51.466;-2.586;2023-02-13T13:49:56;25.98;;;11.57;;
66972;SDS011;53902;51.466;-2.586;2023-02-13T13:54:53;19.95;;;11.13;;
66972;SDS011;53902;51.466;-2.586;2023-02-13T13:57:26;24.40;;;11.73;;
66972;SDS011;53902;51.466;-2.586;2023-02-13T13:59:57;18.30;;;10.18;;
66972;SDS011;53902;51.466;-2.586;2023-02-13T14:03:11;21.27;;;11.70;;
66972;SDS011;53902;51.466;-2.586;2023-02-13T14:11:24;21.58;;;11.73;;
66972;SDS011;53902;51.466;-2.586;2023-02-13T14:13:53;20.30;;;11.95;;
66972;SDS011;53902;51.466;-2.586;2023-02-13T14:16:38;25.65;;;11.98;;
66972;SDS011;53902;51.466;-2.586;2023-02-13T14:19:06;23.77;;;12.27;;
66972;SDS011;53902;51.466;-2.586;2023-02-13T14:21:51;20.60;;;12.30;;
66972;SDS011;53902;51.466;-2.586;2023-02-13T14:24:18;23.48;;;12.07;;
66972;SDS011;53902;51.466;-2.586;2023-02-13T14:26:56;23.02;;;12.45;;
66972;SDS011;53902;51.466;-2.586;2023-02-13T14:29:26;23.50;;;12.85;;
66972;SDS011;53902;51.466;-2.586;2023-02-13T14:31:59;22.08;;;12.07;;
66972;SDS011;53902;51.466;-2.586;2023-02-13T14:34:30;22.63;;;12.70;;
66972;SDS011;53902;51.466;-2.586;2023-02-13T14:37:12;19.95;;;11.65;;
66972;SDS011;53902;51.466;-2.586;2023-02-13T14:40:08;23.25;;;12.82;;
66972;SDS011;53902;51.466;-2.586;2023-02-13T14:42:45;22.75;;;11.55;;
66972;SDS011;53902;51.466;-2.586;2023-02-13T14:45:14;25.10;;;12.80;;
66972;SDS011;53902;51.466;-2.586;2023-02-13T14:47:49;21.38;;;11.82;;
66972;SDS011;53902;51.466;-2.586;2023-02-13T14:52:48;21.95;;;12.52;;
66972;SDS011;53902;51.466;-2.586;2023-02-13T14:55:19;21.45;;;12.15;;
66972;SDS011;53902;51.466;-2.586;2023-02-13T15:05:50;23.25;;;12.43;;
66972;SDS011;53902;51.466;-2.586;2023-02-13T15:08:18;21.27;;;12.23;;
66972;SDS011;53902;51.466;-2.586;2023-02-13T15:10:46;21.95;;;13.00;;
66972;SDS011;53902;51.466;-2.586;2023-02-13T15:13:16;24.85;;;13.32;;
66972;SDS011;53902;51.466;-2.586;2023-02-13T15:16:04;23.10;;;13.45;;
66972;SDS011;53902;51.466;-2.586;2023-02-13T15:18:40;20.23;;;12.63;;
66972;SDS011;53902;51.466;-2.586;2023-02-13T15:21:13;21.67;;;12.35;;
66972;SDS011;53902;51.466;-2.586;2023-02-13T15:23:50;22.23;;;13.10;;
66972;SDS011;53902;51.466;-2.586;2023-02-13T15:26:23;21.83;;;12.57;;
66972;SDS011;53902;51.466;-2.586;2023-02-13T15:31:51;23.23;;;13.27;;
66972;SDS011;53902;51.466;-2.586;2023-02-13T15:34:20;25.17;;;13.40;;
66972;SDS011;53902;51.466;-2.586;2023-02-13T15:36:49;23.20;;;12.95;;
66972;SDS011;53902;51.466;-2.586;2023-02-13T15:39:18;22.23;;;13.15;;
66972;SDS011;53902;51.466;-2.586;2023-02-13T15:42:29;22.67;;;13.15;;
66972;SDS011;53902;51.466;-2.586;2023-02-13T15:44:37;23.10;;;12.25;;
66972;SDS011;53902;51.466;-2.586;2023-02-13T15:47:14;21.17;;;12.05;;
66972;SDS011;53902;51.466;-2.586;2023-02-13T15:49:43;20.33;;;12.25;;
66972;SDS011;53902;51.466;-2.586;2023-02-13T15:52:16;22.67;;;12.48;;
66972;SDS011;53902;51.466;-2.586;2023-02-13T15:54:50;21.90;;;12.13;;
66972;SDS011;53902;51.466;-2.586;2023-02-13T15:57:20;23.15;;;12.32;;
66972;SDS011;53902;51.466;-2.586;2023-02-13T15:59:50;20.38;;;12.43;;
66972;SDS011;53902;51.466;-2.586;2023-02-13T16:02:52;26.55;;;12.50;;
66972;SDS011;53902;51.466;-2.586;2023-02-13T16:05:17;19.00;;;11.93;;
66972;SDS011;53902;51.466;-2.586;2023-02-13T16:07:50;22.88;;;12.48;;
66972;SDS011;53902;51.466;-2.586;2023-02-13T16:10:23;20.73;;;12.05;;
66972;SDS011;53902;51.466;-2.586;2023-02-13T16:12:52;21.90;;;12.27;;
66972;SDS011;53902;51.466;-2.586;2023-02-13T16:15:19;22.58;;;12.20;;
66972;SDS011;53902;51.466;-2.586;2023-02-13T16:17:48;21.63;;;12.60;;
66972;SDS011;53902;51.466;-2.586;2023-02-13T16:20:18;22.02;;;12.35;;
66972;SDS011;53902;51.466;-2.586;2023-02-13T16:22:55;21.92;;;11.80;;
66972;SDS011;53902;51.466;-2.586;2023-02-13T16:25:35;21.15;;;11.35;;
66972;SDS011;53902;51.466;-2.586;2023-02-13T16:39:10;20.33;;;11.07;;
66972;SDS011;53902;51.466;-2.586;2023-02-13T16:41:44;20.50;;;11.98;;
66972;SDS011;53902;51.466;-2.586;2023-02-13T16:44:23;18.75;;;11.13;;
66972;SDS011;53902;51.466;-2.586;2023-02-13T16:46:50;23.27;;;11.63;;
66972;SDS011;53902;51.466;-2.586;2023-02-13T16:49:26;24.33;;;11.95;;
66972;SDS011;53902;51.466;-2.586;2023-02-13T16:57:18;23.73;;;11.50;;
66972;SDS011;53902;51.466;-2.586;2023-02-13T17:02:31;25.42;;;12.30;;
66972;SDS011;53902;51.466;-2.586;2023-02-13T17:07:43;23.23;;;11.68;;
66972;SDS011;53902;51.466;-2.586;2023-02-13T17:13:14;26.17;;;13.77;;
66972;SDS011;53902;51.466;-2.586;2023-02-13T17:15:42;25.40;;;12.57;;
66972;SDS011;53902;51.466;-2.586;2023-02-13T17:18:08;21.27;;;11.82;;
66972;SDS011;53902;51.466;-2.586;2023-02-13T17:20:34;23.52;;;12.40;;
66972;SDS011;53902;51.466;-2.586;2023-02-13T17:23:01;23.40;;;12.73;;
66972;SDS011;53902;51.466;-2.586;2023-02-13T17:25:32;24.67;;;12.98;;
66972;SDS011;53902;51.466;-2.586;2023-02-13T17:28:21;23.63;;;13.10;;
66972;SDS011;53902;51.466;-2.586;2023-02-13T17:30:52;23.58;;;12.73;;
66972;SDS011;53902;51.466;-2.586;2023-02-13T17:33:24;23.42;;;13.57;;
66972;SDS011;53902;51.466;-2.586;2023-02-13T17:35:51;28.38;;;13.70;;
66972;SDS011;53902;51.466;-2.586;2023-02-13T17:38:17;26.80;;;13.18;;
66972;SDS011;53902;51.466;-2.586;2023-02-13T17:40:43;22.40;;;13.00;;
66972;SDS011;53902;51.466;-2.586;2023-02-13T17:43:13;27.50;;;13.30;;
66972;SDS011;53902;51.466;-2.586;2023-02-13T17:45:39;25.20;;;13.20;;
66972;SDS011;53902;51.466;-2.586;2023-02-13T17:48:05;24.98;;;13.32;;
66972;SDS011;53902;51.466;-2.586;2023-02-13T17:50:31;22.27;;;12.90;;
66972;SDS011;53902;51.466;-2.586;2023-02-13T17:53:00;23.17;;;12.85;;
66972;SDS011;53902;51.466;-2.586;2023-02-13T17:55:29;24.30;;;13.02;;